Mesquite, TX (75150)

9:17 PM CST on February 05, 2016 (GMT -0600)
Palos Verdes Estates | | Change Station
CLOSE
Current Station
Personal Weather Station
Location: Mesquite, TX
Elevation: 540 ft
Nearby Weather Stations
Active Advisory: Flood Warning

Elev 540 ft 32.83 °N, 96.61 °W | Updated 40 seconds ago

Clear
Clear
45.1 °F
Feels Like 45 °F
N
0.9
Wind Variable Wind from ESE
Gusts 3.0 mph

Today
High -- | Low -- °F
--% Chance of Precip.
Yesterday
High -- | Low -- °F
Precip. -- in
Pressure 30.30 in
Visibility 10.0 miles
Clouds Clear
Windchill 45 °F
Dew Point 24 °F
Humidity 43%
Rainfall 0.00 in
Snow Depth Not available.
7:18 AM 6:02 PM
Waning Crescent, 8% visible
METAR KHQZ 060255Z AUTO 12009KT 10SM CLR 07/M05 A3030 RMK AO1 T00701053
Pressure 30.30 in
Visibility 10.0 miles
Clouds Clear
Windchill 45 °F
Dew Point 24 °F
Humidity 43%
Rainfall 0.00 in
Snow Depth Not available.
7:18 AM 6:02 PM
Waning Crescent, 8% visible
METAR KHQZ 060255Z AUTO 12009KT 10SM CLR 07/M05 A3030 RMK AO1 T00701053

10-Day Weather Forecast

Almanac

Astronomy

Feb. 05, 2016 Rise Set
Actual Time
Civil Twilight
Nautical Twilight
Astronomical Twilight
Moon
Length of Visible Light
Length of Day
Tomorrow will be .
, % of the Moon is Illuminated

Today's Extremes

State Highs State Lows

Community

WunderPhotos

Upload Photos

1,890,915 photos uploaded!

WunderBlog® & News

Nearby

Air Quality

  Air Quality AQ Index Pollutant
Not available.

Snow Depth

Station Depth Elevation

Earthquake Activity

City Distance Mag. Time & Date
Minimum magnitude displayed is 2.5.

Coastal Water Temperatures

Place Temperature

Stations

Nearby Weather Stations

Station Location Temp. Windchill Dew Point Humidity Wind Precip. Elev Updated Type
                   

Watches & Warnings

Flood Warning
Issued: 6:56 PM CST Feb. 5, 2016 – National Weather Service

The Flood Warning continues for
the Elm Fork Trinity River near Carrollton.
* At 0615 PM Friday the stage was 8.32 feet.
* Flood stage is 8 feet.
* Minor flooding is occurring and minor flooding is forecast.
* Forecast... the river will continue near 8 4 feet for the next few
days.


Lat... Lon 3300 9700 3287 9699 3287 9687 3300 9688